Chicken, AK (99732)

5:35 AM AKDT on October 21, 2014 (GMT -0800)
Northway | Change Station
CLOSE
Current Station
Airport
Location: Northway,
Elevation: 1722 ft
Nearby Weather Stations

Elev 1722 ft 62.96 °N, 141.93 °W | Updated 42 minutes ago

Clear
Clear
25 °F
Feels Like 16 °F
N
8
Wind Variable Wind from ESE

Today
High -- | Low -- °F
--% Chance of Precip.
Yesterday
High -- | Low -- °F
Precip. -- in
8:36 AM 5:48 PM
Waning Crescent, 5% visible
Pressure 29.38 in
Visibility 10.0 miles
Clouds Clear
Windchill 16 °F
Dew Point 23 °F
Humidity 92%
Rainfall 0.00 in
Snow Depth Not available.
UV 0 out of 12
Pollen Not available.
Air Quality Not available.
Flu Activity Sporadic
METAR PAOR 211253Z 11007KT 10SM CLR M04/M05 A2930 RMK AO2 SLP948 I1001 T10391050

More Conditions Fewer Conditions

Pressure 29.38 in
Visibility 10.0 miles
Clouds Clear
Windchill 16 °F
Dew Point 23 °F
Humidity 92%
Rainfall 0.00 in
Snow Depth Not available.
UV 0 out of 12
Pollen Not available.
Air Quality Not available.
Flu Activity Sporadic
METAR PAOR 211253Z 11007KT 10SM CLR M04/M05 A2930 RMK AO2 SLP948 I1001 T10391050

More Conditions Fewer Conditions

10-Day Weather Forecast

Almanac

Astronomy

Oct. 21, 2014 Rise Set
Actual Time 8:36 AM AKDT 5:48 PM AKDT
Civil Twilight 7:47 AM AKDT 6:37 PM AKDT
Nautical Twilight 6:52 AM AKDT 7:32 PM AKDT
Astronomical Twilight 5:57 AM AKDT 8:27 PM AKDT
Moon 5:48 AM AKDT 5:19 PM AKDT
Length of Visible Light 10h 50m
Length of Day
9h 11m
Tomorrow will be 6m 24s shorter.
Waning Crescent, 5% of the Moon is Illuminated
Today
Waning Crescent
Oct 23
New
Oct 30
First Quarter
Nov 6
Full
Nov 14
Last Quarter

Today's Extremes

State Highs State Lows

Community

WunderPhotos

Upload Photos

1,763,662 photos uploaded!

Nearby

Snow Depth

Station Depth Elevation
Granite Creek 6 in 1240 ft
Upper Chena 10 in 2850 ft
Teuchet Creek 4 in 1640 ft
Munson Ridge 11 in 3100 ft
Monument Creek 5 in 1850 ft

Earthquake Activity

City Distance Mag. Time & Date
No recent earthquake activity has been reported nearby.
Minimum magnitude displayed is 2.5.

Coastal Water Temperatures

Place Temperature
No Stations Reporting

Nearby Weather Stations